createdAt,value
2023-05-19T00:02:27.421Z,100.00
2023-05-19T00:04:54.924Z,100.00
2023-05-19T00:07:28.793Z,100.00
2023-05-19T00:09:56.608Z,100.00
2023-05-19T00:12:24.006Z,100.00
2023-05-19T00:14:51.101Z,100.00
2023-05-19T00:17:18.224Z,100.00
2023-05-19T00:19:45.326Z,100.00
2023-05-19T00:22:13.294Z,100.00
2023-05-19T00:24:40.301Z,100.00
2023-05-19T00:27:07.086Z,100.00
2023-05-19T00:29:34.904Z,100.00
2023-05-19T00:32:01.721Z,100.00
2023-05-19T00:34:28.689Z,100.00
2023-05-19T00:36:55.862Z,100.00
2023-05-19T00:39:22.718Z,100.00
2023-05-19T00:41:49.544Z,100.00
2023-05-19T00:44:16.281Z,100.00
2023-05-19T00:46:43.865Z,100.00
2023-05-19T00:49:10.756Z,100.00
2023-05-19T00:51:37.523Z,100.00
2023-05-19T00:54:04.631Z,100.00
2023-05-19T00:56:31.924Z,100.00
2023-05-19T00:58:59.457Z,100.00
2023-05-19T01:01:27.179Z,100.00
2023-05-19T01:03:56.817Z,100.00
2023-05-19T01:06:23.921Z,100.00
2023-05-19T01:08:51.988Z,100.00
2023-05-19T01:11:18.899Z,100.00
2023-05-19T01:13:46.150Z,100.00
2023-05-19T01:16:19.519Z,100.00
2023-05-19T01:19:11.080Z,100.00
2023-05-19T01:22:06.934Z,100.00
2023-05-19T01:25:03.259Z,100.00
2023-05-19T01:28:26.450Z,100.00
2023-05-19T01:30:57.662Z,100.00
2023-05-19T01:33:25.200Z,100.00
2023-05-19T01:35:54.069Z,100.00
2023-05-19T01:38:22.063Z,100.00
2023-05-19T01:40:50.336Z,100.00
2023-05-19T01:43:22.090Z,100.00
2023-05-19T01:45:49.209Z,100.00
2023-05-19T01:48:16.560Z,100.00
2023-05-19T01:50:43.452Z,100.00
2023-05-19T01:53:14.313Z,100.00
2023-05-19T01:55:49.753Z,100.00
2023-05-19T01:58:31.541Z,100.00
2023-05-19T02:01:26.637Z,100.00
2023-05-19T02:04:03.490Z,100.00
2023-05-19T02:06:40.921Z,100.00
2023-05-19T02:09:41.417Z,100.00
2023-05-19T02:12:29.022Z,100.00
2023-05-19T02:15:08.225Z,100.00
2023-05-19T02:17:38.461Z,100.00
2023-05-19T02:20:06.893Z,100.00
2023-05-19T02:26:49.750Z,100.00
2023-05-19T02:29:42.290Z,100.00
2023-05-19T02:35:14.008Z,100.00
2023-05-19T02:38:04.488Z,100.00
2023-05-19T02:40:31.500Z,100.00
2023-05-19T02:42:58.439Z,100.00
2023-05-19T02:45:25.500Z,100.00
2023-05-19T02:47:52.508Z,100.00
2023-05-19T02:50:19.535Z,100.00
2023-05-19T02:52:46.372Z,100.00
2023-05-19T02:55:17.138Z,100.00
2023-05-19T02:57:44.150Z,100.00
2023-05-19T03:00:11.502Z,100.00
2023-05-19T03:02:38.429Z,100.00
2023-05-19T03:05:06.004Z,100.00
2023-05-19T03:07:34.044Z,100.00
2023-05-19T03:10:03.969Z,100.00
2023-05-19T03:12:31.787Z,100.00
2023-05-19T03:14:59.784Z,100.00
2023-05-19T03:17:26.763Z,100.00
2023-05-19T03:19:53.704Z,100.00
2023-05-19T03:22:21.493Z,100.00
2023-05-19T03:24:51.384Z,100.00
2023-05-19T03:27:19.370Z,100.00
2023-05-19T03:29:46.385Z,100.00
2023-05-19T03:32:13.345Z,100.00
2023-05-19T03:34:40.452Z,100.00
2023-05-19T03:37:07.913Z,100.00
2023-05-19T03:39:35.315Z,100.00
2023-05-19T03:42:02.255Z,100.00
2023-05-19T03:44:29.583Z,100.00
2023-05-19T03:46:56.817Z,100.00
2023-05-19T03:49:23.748Z,100.00
2023-05-19T03:51:50.756Z,100.00
2023-05-19T03:54:17.600Z,100.00
2023-05-19T03:56:44.589Z,100.00
2023-05-19T03:59:12.381Z,100.00
2023-05-19T04:01:39.652Z,100.00
2023-05-19T04:04:06.526Z,100.00
2023-05-19T04:06:34.052Z,100.00
2023-05-19T04:09:04.045Z,100.00
2023-05-19T04:11:31.370Z,100.00
2023-05-19T04:14:02.573Z,100.00
2023-05-19T04:16:32.399Z,100.00
2023-05-19T04:19:15.777Z,100.00
2023-05-19T04:21:42.751Z,100.00
2023-05-19T04:24:16.329Z,100.00
2023-05-19T04:26:47.462Z,100.00
2023-05-19T04:29:18.383Z,100.00
2023-05-19T04:31:46.076Z,100.00
2023-05-19T04:34:15.041Z,100.00
2023-05-19T04:37:01.540Z,100.00
2023-05-19T04:39:57.076Z,100.00
2023-05-19T04:42:29.554Z,100.00
2023-05-19T04:45:19.811Z,100.00
2023-05-19T04:47:49.366Z,100.00
2023-05-19T04:50:31.045Z,100.00
2023-05-19T04:52:59.991Z,100.00
2023-05-19T04:55:30.949Z,100.00
2023-05-19T04:57:58.688Z,100.00
2023-05-19T05:00:26.149Z,100.00
2023-05-19T05:02:54.032Z,100.00
2023-05-19T05:05:23.572Z,100.00
2023-05-19T05:07:58.332Z,100.00
2023-05-19T05:10:33.960Z,100.00
2023-05-19T05:13:02.066Z,100.00
2023-05-19T05:15:29.949Z,100.00
2023-05-19T05:18:00.510Z,100.00
2023-05-19T05:20:27.987Z,100.00
2023-05-19T05:22:55.220Z,100.00
2023-05-19T05:25:22.862Z,100.00
2023-05-19T05:27:50.100Z,100.00
2023-05-19T05:30:17.654Z,100.00
2023-05-19T05:32:46.879Z,100.00
2023-05-19T05:35:15.840Z,100.00
2023-05-19T05:37:42.804Z,100.00
2023-05-19T05:40:10.591Z,100.00
2023-05-19T05:42:38.581Z,100.00
2023-05-19T05:45:06.658Z,100.00
2023-05-19T05:47:34.047Z,100.00
2023-05-19T05:50:01.813Z,100.00
2023-05-19T05:52:31.007Z,100.00
2023-05-19T05:54:58.548Z,100.00
2023-05-19T05:57:25.748Z,100.00
2023-05-19T05:59:52.735Z,100.00
2023-05-19T06:02:19.857Z,100.00
2023-05-19T06:04:46.747Z,100.00
2023-05-19T06:07:13.789Z,100.00
2023-05-19T06:09:40.883Z,100.00
2023-05-19T06:12:08.227Z,100.00
2023-05-19T06:14:35.213Z,100.00
2023-05-19T06:17:02.429Z,100.00
2023-05-19T06:19:29.289Z,100.00
2023-05-19T06:21:56.920Z,100.00
2023-05-19T06:24:24.022Z,100.00
2023-05-19T06:26:51.806Z,100.00
2023-05-19T06:29:18.836Z,100.00
2023-05-19T06:31:46.727Z,100.00
2023-05-19T06:34:18.150Z,100.00
2023-05-19T06:36:45.249Z,100.00
2023-05-19T06:39:12.291Z,99.59
2023-05-19T06:41:39.166Z,100.00
2023-05-19T06:44:09.047Z,98.79
2023-05-19T06:46:36.455Z,93.07
2023-05-19T06:49:03.372Z,89.85
2023-05-19T06:51:30.293Z,86.97
2023-05-19T06:53:58.485Z,90.21
2023-05-19T06:56:25.647Z,84.13
2023-05-19T06:58:52.362Z,84.71
2023-05-19T07:01:19.386Z,95.92
2023-05-19T07:03:46.921Z,93.04
2023-05-19T07:06:14.063Z,88.17
2023-05-19T07:08:40.993Z,83.61
2023-05-19T07:11:08.460Z,83.28
2023-05-19T07:13:35.639Z,84.64
2023-05-19T07:16:02.459Z,80.92
2023-05-19T07:18:31.876Z,78.72
2023-05-19T07:20:59.819Z,70.99
2023-05-19T07:23:26.776Z,71.49
2023-05-19T07:25:56.858Z,77.14
2023-05-19T07:28:25.281Z,80.97
2023-05-19T07:30:53.326Z,86.76
2023-05-19T07:33:20.548Z,87.84
2023-05-19T07:35:48.198Z,78.85
2023-05-19T07:38:15.256Z,74.57
2023-05-19T07:40:42.093Z,73.99
2023-05-19T07:43:08.995Z,69.95
2023-05-19T07:45:37.415Z,68.98
2023-05-19T07:48:12.576Z,69.45
2023-05-19T07:50:39.713Z,71.13
2023-05-19T07:53:47.666Z,67.83
2023-05-19T07:56:17.118Z,80.89
2023-05-19T07:58:47.343Z,83.62
2023-05-19T08:01:19.635Z,81.79
2023-05-19T08:03:47.640Z,71.94
2023-05-19T08:06:17.554Z,75.23
2023-05-19T08:08:45.198Z,77.34
2023-05-19T08:11:14.084Z,73.59
2023-05-19T08:13:43.453Z,75.36
2023-05-19T08:16:13.425Z,70.50
2023-05-19T08:18:41.421Z,74.73
2023-05-19T08:21:08.681Z,73.35
2023-05-19T08:23:37.458Z,70.15
2023-05-19T08:26:10.080Z,67.08
2023-05-19T08:28:37.263Z,62.66
2023-05-19T08:31:06.664Z,60.21
2023-05-19T08:33:36.147Z,57.05
2023-05-19T08:36:03.244Z,55.41
2023-05-19T08:38:31.782Z,53.15
2023-05-19T08:40:58.934Z,59.99
2023-05-19T08:43:30.232Z,64.99
2023-05-19T08:46:00.607Z,66.84
2023-05-19T08:48:33.051Z,67.63
2023-05-19T08:51:37.462Z,63.63
2023-05-19T08:54:15.428Z,58.33
2023-05-19T08:56:45.818Z,59.54
2023-05-19T08:59:18.162Z,59.30
2023-05-19T09:01:46.526Z,61.84
2023-05-19T09:04:14.213Z,62.21
2023-05-19T09:06:41.431Z,62.99
2023-05-19T09:09:09.329Z,61.50
2023-05-19T09:11:38.024Z,63.15
2023-05-19T09:14:05.832Z,61.91
2023-05-19T09:16:34.164Z,61.78
2023-05-19T09:19:01.516Z,60.37
2023-05-19T09:21:32.061Z,57.89
2023-05-19T09:24:04.446Z,57.99
2023-05-19T09:26:42.581Z,55.33
2023-05-19T09:29:14.822Z,55.93
2023-05-19T09:31:52.051Z,55.94
2023-05-19T09:34:19.974Z,54.40
2023-05-19T09:36:51.914Z,56.31
2023-05-19T09:39:23.073Z,56.55
2023-05-19T09:41:58.774Z,54.92
2023-05-19T09:44:32.290Z,57.63
2023-05-19T09:47:00.186Z,53.35
2023-05-19T09:49:29.878Z,53.89
2023-05-19T09:52:04.242Z,58.20
2023-05-19T09:54:32.685Z,52.72
2023-05-19T09:57:01.028Z,51.55
2023-05-19T09:59:32.859Z,51.37
2023-05-19T10:02:02.241Z,52.56
2023-05-19T10:04:35.207Z,52.02
2023-05-19T10:07:05.844Z,51.92
2023-05-19T10:09:33.611Z,50.40
2023-05-19T10:12:00.828Z,51.17
2023-05-19T10:14:29.256Z,47.67
2023-05-19T10:16:58.681Z,47.42
2023-05-19T10:19:28.486Z,47.86
2023-05-19T10:21:56.264Z,48.32
2023-05-19T10:24:23.020Z,48.81
2023-05-19T10:27:03.925Z,49.45
2023-05-19T10:29:34.931Z,50.23
2023-05-19T10:32:07.098Z,49.44
2023-05-19T10:34:52.839Z,47.84
2023-05-19T10:37:45.128Z,48.27
2023-05-19T10:40:30.600Z,50.15
2023-05-19T10:43:03.089Z,50.76
2023-05-19T10:45:36.576Z,50.25
2023-05-19T10:48:03.650Z,49.35
2023-05-19T10:50:37.802Z,48.87
2023-05-19T10:53:04.681Z,49.25
2023-05-19T10:55:56.401Z,50.64
2023-05-19T10:58:46.564Z,46.86
2023-05-19T11:01:14.798Z,46.01
2023-05-19T11:03:52.586Z,46.06
2023-05-19T11:06:38.371Z,45.11
2023-05-19T11:09:17.932Z,45.82
2023-05-19T11:11:51.510Z,46.13
2023-05-19T11:14:20.588Z,45.77
2023-05-19T11:16:52.072Z,45.91
2023-05-19T11:19:29.656Z,47.93
2023-05-19T11:21:58.105Z,46.91
2023-05-19T11:24:50.277Z,46.46
2023-05-19T11:27:31.450Z,46.92
2023-05-19T11:29:59.725Z,45.32
2023-05-19T11:32:31.242Z,44.35
2023-05-19T11:35:00.635Z,43.63
2023-05-19T11:37:31.503Z,42.74
2023-05-19T11:40:01.461Z,43.86
2023-05-19T11:42:28.628Z,42.30
2023-05-19T11:44:56.420Z,43.77
2023-05-19T11:47:23.510Z,43.92
2023-05-19T11:49:55.100Z,45.61
2023-05-19T11:52:23.307Z,47.12
2023-05-19T11:54:50.404Z,45.45
2023-05-19T11:57:20.323Z,46.40
2023-05-19T11:59:49.852Z,45.34
2023-05-19T12:02:22.726Z,45.84
2023-05-19T12:04:49.858Z,46.08
2023-05-19T12:07:18.563Z,48.61
2023-05-19T12:09:48.362Z,52.90
2023-05-19T12:12:20.742Z,55.29
2023-05-19T12:14:49.520Z,54.30
2023-05-19T12:17:18.142Z,58.88
2023-05-19T12:19:47.267Z,61.37
2023-05-19T12:22:15.573Z,69.16
2023-05-19T12:24:43.797Z,90.05
2023-05-19T12:27:29.108Z,100.00
2023-05-19T12:29:59.488Z,100.00
2023-05-19T12:32:28.990Z,100.00
2023-05-19T12:34:56.828Z,100.00
2023-05-19T12:37:27.803Z,100.00
2023-05-19T12:39:56.383Z,100.00
2023-05-19T12:42:24.335Z,100.00
2023-05-19T12:44:52.714Z,100.00
2023-05-19T12:47:20.572Z,100.00
2023-05-19T12:49:57.446Z,100.00
2023-05-19T12:52:24.309Z,100.00
2023-05-19T12:54:59.291Z,100.00
2023-05-19T12:57:27.380Z,100.00
2023-05-19T13:00:00.661Z,99.12
2023-05-19T13:02:27.771Z,93.61
2023-05-19T13:04:54.928Z,83.37
2023-05-19T13:07:21.986Z,82.55
2023-05-19T13:09:48.833Z,75.61
2023-05-19T13:12:16.156Z,73.60
2023-05-19T13:14:43.650Z,73.09
2023-05-19T13:17:10.513Z,71.77
2023-05-19T13:19:37.707Z,62.19
2023-05-19T13:22:04.850Z,62.03
2023-05-19T13:24:32.370Z,64.67
2023-05-19T13:26:59.405Z,59.51
2023-05-19T13:29:28.379Z,57.60
2023-05-19T13:31:55.371Z,55.44
2023-05-19T13:34:22.412Z,55.18
2023-05-19T13:36:49.686Z,54.04
2023-05-19T13:39:18.913Z,53.61
2023-05-19T13:41:45.725Z,50.67
2023-05-19T13:44:12.706Z,51.54
2023-05-19T13:46:45.604Z,49.61
2023-05-19T13:49:13.283Z,49.04
2023-05-19T13:51:43.600Z,48.23
2023-05-19T13:54:10.778Z,47.98
2023-05-19T13:56:37.496Z,49.26
2023-05-19T13:59:04.330Z,48.71
2023-05-19T14:01:31.516Z,48.60
2023-05-19T14:03:58.414Z,48.75
2023-05-19T14:06:25.392Z,49.18
2023-05-19T14:08:52.176Z,50.12
2023-05-19T14:11:20.236Z,51.02
2023-05-19T14:13:52.328Z,51.00
2023-05-19T14:16:20.593Z,51.12
2023-05-19T14:18:47.666Z,50.18
2023-05-19T14:21:15.120Z,49.90
2023-05-19T14:23:42.183Z,49.67
2023-05-19T14:26:08.991Z,49.63
2023-05-19T14:28:35.875Z,47.26
2023-05-19T14:31:03.240Z,46.60
2023-05-19T14:33:34.892Z,47.46
2023-05-19T14:36:02.850Z,46.56
2023-05-19T14:38:30.363Z,47.40
2023-05-19T14:40:57.255Z,47.82
2023-05-19T14:43:24.091Z,47.14
2023-05-19T14:45:51.225Z,47.67
2023-05-19T14:48:18.476Z,46.17
2023-05-19T14:50:48.154Z,45.72
2023-05-19T14:53:16.471Z,45.47
2023-05-19T14:55:43.935Z,45.56
2023-05-19T14:58:26.957Z,46.34
2023-05-19T15:00:57.212Z,44.95
2023-05-19T15:03:29.950Z,45.40
2023-05-19T15:05:59.290Z,45.96
2023-05-19T15:08:26.434Z,45.50
2023-05-19T15:10:53.324Z,43.96
2023-05-19T15:13:21.648Z,43.25
2023-05-19T15:15:48.500Z,42.56
2023-05-19T15:18:18.878Z,41.53
2023-05-19T15:20:46.600Z,42.77
2023-05-19T15:23:13.487Z,41.92
2023-05-19T15:25:40.489Z,42.12
2023-05-19T15:28:08.369Z,42.35
2023-05-19T15:30:35.269Z,44.25
2023-05-19T15:33:02.220Z,45.42
2023-05-19T15:35:29.475Z,46.03
2023-05-19T15:37:56.308Z,45.04
2023-05-19T15:40:24.031Z,45.18
2023-05-19T15:42:50.864Z,45.97
2023-05-19T15:45:17.671Z,46.13
2023-05-19T15:47:45.074Z,46.00
2023-05-19T15:50:20.786Z,46.14
2023-05-19T15:52:47.541Z,46.58
2023-05-19T15:55:14.503Z,46.58
2023-05-19T15:57:41.460Z,46.24
2023-05-19T16:00:09.574Z,47.02
2023-05-19T16:02:36.604Z,46.22
2023-05-19T16:05:03.531Z,46.88
2023-05-19T16:07:30.694Z,47.65
2023-05-19T16:09:57.563Z,48.53
2023-05-19T16:12:24.786Z,49.50
2023-05-19T16:14:51.602Z,50.13
2023-05-19T16:17:19.998Z,50.95
2023-05-19T16:19:46.611Z,51.07
2023-05-19T16:22:14.385Z,52.07
2023-05-19T16:24:41.404Z,51.62
2023-05-19T16:27:08.203Z,52.20
2023-05-19T16:29:35.020Z,53.11
2023-05-19T16:32:01.755Z,52.92
2023-05-19T16:34:30.616Z,52.92
2023-05-19T16:36:57.740Z,53.86
2023-05-19T16:39:24.874Z,54.30
2023-05-19T16:41:53.004Z,55.45
2023-05-19T16:44:38.168Z,55.18
2023-05-19T16:47:05.071Z,55.90
2023-05-19T16:49:33.610Z,56.42
2023-05-19T16:52:00.617Z,57.62
2023-05-19T16:54:28.826Z,56.86
2023-05-19T16:56:56.296Z,56.01
2023-05-19T16:59:23.192Z,57.96
2023-05-19T17:01:50.344Z,57.92
2023-05-19T17:04:17.290Z,59.97
2023-05-19T17:06:44.593Z,63.28
2023-05-19T17:09:12.076Z,65.48
2023-05-19T17:11:39.197Z,68.92
2023-05-19T17:14:09.546Z,69.91
2023-05-19T17:16:37.209Z,70.85
2023-05-19T17:19:04.459Z,73.09
2023-05-19T17:21:32.927Z,75.42
2023-05-19T17:24:00.130Z,77.28
2023-05-19T17:26:27.804Z,78.69
2023-05-19T17:28:54.935Z,79.67
2023-05-19T17:31:21.675Z,81.21
2023-05-19T17:33:49.203Z,82.82
2023-05-19T17:36:16.074Z,84.27
2023-05-19T17:38:42.934Z,84.63
2023-05-19T17:41:10.371Z,85.41
2023-05-19T17:43:40.752Z,86.50
2023-05-19T17:46:07.669Z,86.42
2023-05-19T17:48:34.574Z,86.37
2023-05-19T17:51:01.889Z,87.65
2023-05-19T17:53:30.172Z,89.10
2023-05-19T17:56:03.137Z,88.88
2023-05-19T17:58:33.136Z,86.67
2023-05-19T18:00:59.997Z,82.37
2023-05-19T18:03:27.392Z,81.31
2023-05-19T18:05:54.847Z,79.58
2023-05-19T18:08:22.066Z,76.91
2023-05-19T18:10:51.843Z,75.91
2023-05-19T18:13:23.746Z,75.46
2023-05-19T18:15:52.834Z,71.64
2023-05-19T18:18:21.977Z,67.05
2023-05-19T18:20:49.023Z,63.13
2023-05-19T18:23:15.670Z,60.87
2023-05-19T18:25:49.519Z,60.16
2023-05-19T18:28:16.426Z,59.42
2023-05-19T18:30:45.804Z,59.88
2023-05-19T18:33:13.336Z,60.30
2023-05-19T18:35:40.538Z,60.22
2023-05-19T18:38:07.357Z,60.75
2023-05-19T18:40:35.005Z,59.32
2023-05-19T18:43:01.934Z,59.81
2023-05-19T18:45:28.836Z,60.20
2023-05-19T18:47:56.536Z,60.53
2023-05-19T18:50:23.417Z,61.05
2023-05-19T18:55:48.850Z,61.46
2023-05-19T18:58:16.078Z,61.60
2023-05-19T19:00:43.184Z,62.21
2023-05-19T19:03:12.050Z,62.67
2023-05-19T19:05:39.542Z,63.05
2023-05-19T19:08:08.633Z,64.16
2023-05-19T19:10:39.187Z,65.36
2023-05-19T19:13:06.356Z,67.41
2023-05-19T19:15:38.003Z,68.59
2023-05-19T19:18:08.320Z,70.79
2023-05-19T19:20:35.375Z,74.77
2023-05-19T19:23:05.137Z,77.31
2023-05-19T19:25:34.172Z,82.90
2023-05-19T19:28:01.726Z,87.01
2023-05-19T19:30:29.693Z,91.31
2023-05-19T19:32:57.037Z,94.05
2023-05-19T19:35:24.140Z,100.00
2023-05-19T19:37:51.836Z,100.00
2023-05-19T19:40:18.667Z,100.00
2023-05-19T19:42:48.463Z,100.00
2023-05-19T19:45:15.774Z,100.00
2023-05-19T19:47:55.570Z,100.00
2023-05-19T19:50:38.972Z,100.00
2023-05-19T19:53:10.316Z,100.00
2023-05-19T19:55:37.190Z,100.00
2023-05-19T19:58:03.883Z,100.00
2023-05-19T20:00:30.989Z,100.00
2023-05-19T20:03:04.996Z,100.00
2023-05-19T20:05:33.003Z,100.00
2023-05-19T20:07:59.912Z,100.00
2023-05-19T20:10:27.325Z,100.00
2023-05-19T20:12:54.441Z,100.00
2023-05-19T20:15:21.195Z,100.00
2023-05-19T20:17:53.507Z,100.00
2023-05-19T20:20:20.504Z,100.00
2023-05-19T20:22:47.439Z,100.00
2023-05-19T20:25:14.815Z,100.00
2023-05-19T20:27:44.616Z,100.00
2023-05-19T20:30:11.821Z,100.00
2023-05-19T20:32:39.078Z,100.00
2023-05-19T20:35:09.533Z,100.00
2023-05-19T20:37:36.430Z,100.00
2023-05-19T20:40:03.758Z,100.00
2023-05-19T20:42:31.276Z,100.00
2023-05-19T20:44:58.228Z,100.00
2023-05-19T20:47:25.230Z,100.00
2023-05-19T20:49:52.011Z,100.00
2023-05-19T20:52:19.702Z,100.00
2023-05-19T20:54:46.544Z,100.00
2023-05-19T20:57:13.396Z,100.00
2023-05-19T20:59:40.725Z,100.00
2023-05-19T21:02:07.833Z,100.00
2023-05-19T21:04:34.897Z,100.00
2023-05-19T21:07:01.673Z,100.00
2023-05-19T21:09:28.529Z,100.00
2023-05-19T21:12:02.476Z,100.00
2023-05-19T21:17:37.947Z,100.00
2023-05-19T21:20:06.178Z,100.00
2023-05-19T21:22:37.051Z,100.00
2023-05-19T21:25:04.518Z,100.00
2023-05-19T21:27:52.494Z,100.00
2023-05-19T21:30:51.666Z,100.00
2023-05-19T21:33:41.078Z,100.00
2023-05-19T21:36:17.150Z,100.00
2023-05-19T21:39:05.495Z,100.00
2023-05-19T21:41:39.613Z,100.00
2023-05-19T21:44:07.486Z,100.00
2023-05-19T21:46:34.824Z,100.00
2023-05-19T21:49:01.554Z,100.00
2023-05-19T21:51:29.265Z,100.00
2023-05-19T21:53:56.422Z,100.00
2023-05-19T21:56:23.227Z,100.00
2023-05-19T21:58:50.295Z,100.00
2023-05-19T22:01:17.079Z,100.00
2023-05-19T22:03:44.934Z,100.00
2023-05-19T22:06:11.913Z,100.00
2023-05-19T22:08:38.846Z,100.00
2023-05-19T22:11:06.075Z,100.00
2023-05-19T22:13:34.052Z,100.00
2023-05-19T22:16:00.831Z,100.00
2023-05-19T22:18:27.552Z,100.00
2023-05-19T22:20:54.365Z,100.00
2023-05-19T22:23:21.126Z,100.00
2023-05-19T22:25:48.044Z,100.00
2023-05-19T22:28:15.205Z,100.00
2023-05-19T22:30:44.640Z,100.00
2023-05-19T22:33:11.969Z,100.00
2023-05-19T22:35:38.908Z,100.00
2023-05-19T22:38:06.012Z,100.00
2023-05-19T22:40:33.975Z,100.00
2023-05-19T22:43:00.981Z,100.00
2023-05-19T22:45:29.429Z,100.00
2023-05-19T22:47:56.276Z,100.00
2023-05-19T22:50:23.211Z,100.00
2023-05-19T22:52:50.026Z,100.00
2023-05-19T22:55:17.034Z,100.00
2023-05-19T22:57:43.969Z,100.00
2023-05-19T23:00:14.065Z,100.00
2023-05-19T23:02:42.073Z,100.00
2023-05-19T23:05:09.257Z,100.00
2023-05-19T23:07:36.327Z,100.00
2023-05-19T23:10:04.442Z,100.00
2023-05-19T23:12:31.328Z,100.00
2023-05-19T23:14:58.069Z,100.00
2023-05-19T23:17:49.566Z,100.00
2023-05-19T23:20:35.226Z,100.00
2023-05-19T23:23:03.904Z,100.00
2023-05-19T23:25:30.900Z,100.00
2023-05-19T23:27:57.726Z,100.00
2023-05-19T23:30:24.494Z,100.00
2023-05-19T23:32:51.479Z,100.00
2023-05-19T23:35:18.582Z,100.00
2023-05-19T23:37:46.047Z,100.00
2023-05-19T23:40:15.499Z,100.00
2023-05-19T23:42:44.701Z,100.00
2023-05-19T23:45:17.439Z,100.00
